Station Historical Data
Daily Summary for January 9, 2018 Units:  English    Metric   Both
« Previous Day
Next Day »
Daily Weekly Monthly Yearly Custom
  High: Low: Average:
Temperature: 33.4 °F 28.8 °F 31.2 °F
Dew Point: 30.1 °F 21.8 °F 26.5 °F
Humidity: 88% 67% 83%
Wind Speed: 14.0mph 3.0mph 7mph
Wind Gust: 25.0mph - -
Wind- - West
Pressure: 30.30 in 29.99 in -
Precipitation: 0.01 in    
Historical Graphs
 
 
Tabular Data for January 9, 2018
Time Temperature Dew Point Pressure Wind Wind Speed Wind Gust Humidity Rainfall Rate (Hourly)
00:05 33.3 °F 30.1 °F 29.99 in WSW 11.0 mph 25.0 mph 88% 0.01 in
00:14 33.2 °F 30.0 °F 29.99 in West 11.0 mph 20.0 mph 88% 0.01 in
00:19 33.2 °F 30.0 °F 29.99 in WSW 10.0 mph 20.0 mph 88% 0.01 in
00:24 33.2 °F 30.0 °F 29.99 in WSW 10.0 mph 20.0 mph 88% 0.01 in
00:29 33.2 °F 30.0 °F 29.99 in WSW 10.0 mph 20.0 mph 88% 0.01 in
00:34 33.2 °F 30.0 °F 29.99 in WSW 9.0 mph 19.0 mph 88% 0.00 in
00:44 33.2 °F 30.0 °F 29.99 in SW 8.0 mph 18.0 mph 88% 0.00 in
00:49 33.2 °F 30.0 °F 30.00 in WSW 9.0 mph 22.0 mph 88% 0.00 in
00:54 33.2 °F 30.0 °F 30.00 in WSW 9.0 mph 24.0 mph 88% 0.00 in
00:59 33.2 °F 30.0 °F 30.00 in WSW 10.0 mph 24.0 mph 88% 0.00 in
01:04 33.2 °F 29.8 °F 30.00 in WSW 11.0 mph 21.0 mph 87% 0.00 in
01:09 33.2 °F 30.0 °F 30.00 in WSW 11.0 mph 24.0 mph 88% 0.00 in
01:14 33.2 °F 29.8 °F 30.01 in WSW 11.0 mph 24.0 mph 87% 0.00 in
01:24 33.2 °F 29.8 °F 30.01 in West 9.0 mph 17.0 mph 87% 0.00 in
01:30 33.1 °F 29.7 °F 30.02 in WSW 9.0 mph 16.0 mph 87% 0.00 in
01:35 33.1 °F 29.7 °F 30.02 in West 8.0 mph 15.0 mph 87% 0.00 in
01:39 33.2 °F 29.8 °F 30.02 in WSW 9.0 mph 13.0 mph 87% 0.00 in
01:44 33.2 °F 29.8 °F 30.02 in West 6.0 mph 14.0 mph 87% 0.00 in
01:49 33.2 °F 29.8 °F 30.03 in WSW 8.0 mph 14.0 mph 87% 0.00 in
01:50 33.2 °F 29.8 °F 30.03 in West 8.0 mph 14.0 mph 87% 0.00 in
01:54 33.3 °F 29.6 °F 30.03 in WSW 8.0 mph 13.0 mph 86% 0.00 in
02:04 33.4 °F 29.7 °F 30.03 in WSW 7.0 mph 12.0 mph 86% 0.00 in
02:09 33.4 °F 29.7 °F 30.04 in South 7.0 mph 10.0 mph 86% 0.00 in
02:14 33.4 °F 29.7 °F 30.04 in NW 8.0 mph 13.0 mph 86% 0.00 in
02:15 33.4 °F 29.7 °F 30.04 in WSW 7.0 mph 13.0 mph 86% 0.00 in
02:19 33.3 °F 29.6 °F 30.04 in WSW 7.0 mph 15.0 mph 86% 0.01 in
02:24 33.2 °F 29.2 °F 30.05 in WSW 7.0 mph 15.0 mph 85% 0.01 in
02:34 33.0 °F 29.0 °F 30.05 in WSW 8.0 mph 13.0 mph 85% 0.01 in
02:39 32.9 °F 28.9 °F 30.06 in WSW 14.0 mph 17.0 mph 85% 0.01 in
02:45 32.8 °F 28.8 °F 30.05 in WSW 8.0 mph 17.0 mph 85% 0.01 in
02:49 32.7 °F 28.7 °F 30.06 in WSW 11.0 mph 13.0 mph 85% 0.01 in
02:54 32.5 °F 28.5 °F 30.06 in WSW 8.0 mph 18.0 mph 85% 0.01 in
02:59 32.4 °F 28.7 °F 30.06 in WSW 9.0 mph 18.0 mph 86% 0.01 in
03:04 32.3 °F 28.6 °F 30.06 in WSW 8.0 mph 18.0 mph 86% 0.01 in
03:09 32.2 °F 28.5 °F 30.06 in WSW 10.0 mph 18.0 mph 86% 0.01 in
03:10 32.2 °F 28.5 °F 30.06 in WSW 8.0 mph 18.0 mph 86% 0.01 in
03:14 32.1 °F 28.4 °F 30.06 in West 8.0 mph 15.0 mph 86% 0.01 in
03:24 32.0 °F 28.3 °F 30.07 in WSW 7.0 mph 14.0 mph 86% 0.00 in
03:29 31.9 °F 28.2 °F 30.07 in WSW 8.0 mph 15.0 mph 86% 0.00 in
03:34 31.9 °F 28.5 °F 30.07 in SW 10.0 mph 15.0 mph 87% 0.00 in
03:39 31.9 °F 28.5 °F 30.07 in WSW 8.0 mph 16.0 mph 87% 0.00 in
03:44 32.0 °F 28.6 °F 30.07 in WSW 8.0 mph 19.0 mph 87% 0.00 in
03:49 31.9 °F 28.5 °F 30.07 in SW 10.0 mph 16.0 mph 87% 0.00 in
03:54 31.9 °F 28.5 °F 30.08 in WSW 10.0 mph 16.0 mph 87% 0.00 in
03:59 31.8 °F 28.4 °F 30.08 in WSW 9.0 mph 17.0 mph 87% 0.00 in
04:00 31.8 °F 28.4 °F 30.08 in WSW 9.0 mph 17.0 mph 87% 0.00 in
04:09 31.6 °F 28.2 °F 30.08 in WSW 9.0 mph 18.0 mph 87% 0.00 in
04:14 31.6 °F 28.2 °F 30.08 in SW 7.0 mph 15.0 mph 87% 0.00 in
04:19 31.6 °F 28.2 °F 30.09 in WSW 8.0 mph 18.0 mph 87% 0.00 in
04:25 31.6 °F 28.5 °F 30.09 in WSW 7.0 mph 19.0 mph 88% 0.00 in
04:26 31.6 °F 28.5 °F 30.09 in WSW 9.0 mph 19.0 mph 88% 0.00 in
04:29 31.4 °F 28.3 °F 30.09 in West 8.0 mph 19.0 mph 88% 0.00 in
04:34 31.4 °F 28.3 °F 30.09 in WSW 10.0 mph 19.0 mph 88% 0.00 in
04:39 31.4 °F 28.3 °F 30.09 in WSW 8.0 mph 21.0 mph 88% 0.00 in
04:45 31.3 °F 28.2 °F 30.09 in WSW 10.0 mph 21.0 mph 88% 0.00 in
04:54 31.2 °F 28.1 °F 30.09 in WSW 9.0 mph 17.0 mph 88% 0.00 in
04:59 31.2 °F 28.1 °F 30.10 in WSW 8.0 mph 17.0 mph 88% 0.00 in
05:04 31.1 °F 28.0 °F 30.10 in SW 14.0 mph 17.0 mph 88% 0.00 in
05:09 31.1 °F 28.0 °F 30.10 in SW 6.0 mph 16.0 mph 88% 0.00 in
05:14 31.0 °F 27.9 °F 30.10 in West 6.0 mph 15.0 mph 88% 0.00 in
05:24 30.8 °F 27.7 °F 30.10 in West 7.0 mph 16.0 mph 88% 0.00 in
05:29 30.8 °F 27.7 °F 30.10 in West 9.0 mph 12.0 mph 88% 0.00 in
05:35 30.8 °F 27.7 °F 30.11 in WSW 8.0 mph 14.0 mph 88% 0.00 in
05:44 30.7 °F 27.6 °F 30.11 in WSW 9.0 mph 16.0 mph 88% 0.00 in
05:49 30.7 °F 27.6 °F 30.12 in WSW 7.0 mph 16.0 mph 88% 0.00 in
05:54 30.7 °F 27.6 °F 30.12 in West 7.0 mph 13.0 mph 88% 0.00 in
05:55 30.7 °F 27.6 °F 30.12 in WSW 7.0 mph 16.0 mph 88% 0.00 in
06:05 30.6 °F 27.5 °F 30.12 in SSW 4.0 mph 11.0 mph 88% 0.00 in
06:09 30.6 °F 27.5 °F 30.12 in WSW 7.0 mph 15.0 mph 88% 0.00 in
06:19 30.4 °F 27.3 °F 30.13 in West 4.0 mph 9.0 mph 88% 0.00 in
06:24 30.2 °F 27.1 °F 30.13 in WSW 5.0 mph 9.0 mph 88% 0.00 in
06:29 30.1 °F 27.0 °F 30.13 in WSW 5.0 mph 9.0 mph 88% 0.00 in
06:30 30.1 °F 27.0 °F 30.13 in SW 5.0 mph 9.0 mph 88% 0.00 in
06:34 30.0 °F 26.9 °F 30.13 in WSW 5.0 mph 9.0 mph 88% 0.00 in
06:35 30.0 °F 26.9 °F 30.13 in WSW 5.0 mph 9.0 mph 88% 0.00 in
06:44 29.8 °F 26.7 °F 30.13 in West 5.0 mph 11.0 mph 88% 0.00 in
06:49 29.8 °F 26.7 °F 30.14 in WSW 6.0 mph 12.0 mph 88% 0.00 in
06:54 29.7 °F 26.6 °F 30.14 in WSW 6.0 mph 10.0 mph 88% 0.00 in
06:59 29.7 °F 26.6 °F 30.14 in West 12.0 mph 12.0 mph 88% 0.00 in
07:04 29.7 °F 26.6 °F 30.15 in WSW 6.0 mph 13.0 mph 88% 0.00 in
07:09 29.8 °F 26.4 °F 30.15 in WSW 6.0 mph 13.0 mph 87% 0.00 in
07:14 29.6 °F 26.2 °F 30.15 in WSW 5.0 mph 10.0 mph 87% 0.00 in
07:19 29.6 °F 26.5 °F 30.15 in WSW 5.0 mph 10.0 mph 88% 0.00 in
07:24 29.6 °F 26.2 °F 30.15 in West 5.0 mph 13.0 mph 87% 0.00 in
07:29 29.6 °F 26.2 °F 30.16 in West 7.0 mph 12.0 mph 87% 0.00 in
07:30 29.6 °F 26.2 °F 30.16 in West 5.0 mph 13.0 mph 87% 0.00 in
07:34 29.4 °F 26.0 °F 30.16 in WSW 7.0 mph 13.0 mph 87% 0.00 in
07:39 29.4 °F 26.0 °F 30.16 in WSW 3.0 mph 10.0 mph 87% 0.00 in
07:44 29.3 °F 25.9 °F 30.16 in West 5.0 mph 10.0 mph 87% 0.00 in
07:49 29.2 °F 25.8 °F 30.17 in West 5.0 mph 9.0 mph 87% 0.00 in
07:54 29.1 °F 25.7 °F 30.17 in West 5.0 mph 11.0 mph 87% 0.00 in
08:04 29.0 °F 25.6 °F 30.17 in WSW 6.0 mph 11.0 mph 87% 0.00 in
08:05 29.0 °F 25.6 °F 30.17 in West 5.0 mph 11.0 mph 87% 0.00 in
08:09 28.9 °F 25.5 °F 30.18 in West 5.0 mph 11.0 mph 87% 0.00 in
08:14 28.9 °F 25.5 °F 30.18 in West 5.0 mph 10.0 mph 87% 0.00 in
08:19 28.9 °F 25.5 °F 30.18 in West 5.0 mph 10.0 mph 87% 0.00 in
08:24 28.8 °F 25.4 °F 30.18 in West 5.0 mph 11.0 mph 87% 0.00 in
08:34 28.8 °F 25.1 °F 30.19 in West 5.0 mph 11.0 mph 86% 0.00 in
08:39 28.8 °F 25.1 °F 30.19 in WSW 4.0 mph 11.0 mph 86% 0.00 in
08:44 28.8 °F 25.1 °F 30.20 in WSW 6.0 mph 9.0 mph 86% 0.00 in
08:49 28.9 °F 25.2 °F 30.20 in West 5.0 mph 9.0 mph 86% 0.00 in
08:54 29.0 °F 25.3 °F 30.20 in West 4.0 mph 9.0 mph 86% 0.00 in
08:59 29.1 °F 25.4 °F 30.20 in WNW 5.0 mph 9.0 mph 86% 0.00 in
09:04 29.2 °F 25.3 °F 30.21 in West 4.0 mph 9.0 mph 85% 0.00 in
09:05 29.2 °F 25.3 °F 30.21 in WNW 4.0 mph 8.0 mph 85% 0.00 in
09:14 29.4 °F 25.4 °F 30.21 in West 5.0 mph 9.0 mph 85% 0.00 in
09:19 29.6 °F 25.4 °F 30.22 in West 4.0 mph 11.0 mph 84% 0.00 in
09:24 29.8 °F 25.6 °F 30.22 in West 4.0 mph 11.0 mph 84% 0.00 in
09:29 29.9 °F 25.7 °F 30.22 in West 8.0 mph 9.0 mph 84% 0.00 in
09:34 30.0 °F 25.8 °F 30.23 in West 6.0 mph 9.0 mph 84% 0.00 in
09:44 30.3 °F 25.8 °F 30.23 in NW 4.0 mph 9.0 mph 83% 0.00 in
09:49 30.4 °F 25.6 °F 30.23 in WNW 6.0 mph 12.0 mph 82% 0.00 in
09:54 30.4 °F 25.6 °F 30.24 in West 6.0 mph 12.0 mph 82% 0.00 in
09:59 30.5 °F 25.4 °F 30.24 in West 6.0 mph 10.0 mph 81% 0.00 in
10:04 30.6 °F 25.5 °F 30.24 in West 6.0 mph 11.0 mph 81% 0.00 in
10:09 30.8 °F 25.7 °F 30.24 in West 5.0 mph 11.0 mph 81% 0.00 in
10:10 30.8 °F 25.7 °F 30.24 in WSW 5.0 mph 9.0 mph 81% 0.00 in
10:14 30.9 °F 25.5 °F 30.25 in West 7.0 mph 12.0 mph 80% 0.00 in
10:19 31.0 °F 25.2 °F 30.25 in WNW 5.0 mph 12.0 mph 79% 0.00 in
10:24 31.1 °F 25.3 °F 30.25 in West 3.0 mph 10.0 mph 79% 0.00 in
10:29 31.3 °F 25.5 °F 30.25 in West 4.0 mph 10.0 mph 79% 0.00 in
10:34 31.4 °F 25.6 °F 30.25 in WNW 4.0 mph 10.0 mph 79% 0.00 in
10:39 31.6 °F 25.5 °F 30.25 in WNW 5.0 mph 11.0 mph 78% 0.00 in
10:44 31.7 °F 25.3 °F 30.25 in SW 6.0 mph 13.0 mph 77% 0.00 in
10:49 31.7 °F 24.7 °F 30.25 in WSW 10.0 mph 12.0 mph 75% 0.00 in
10:50 31.7 °F 24.7 °F 30.25 in WNW 6.0 mph 13.0 mph 75% 0.00 in
10:54 31.7 °F 24.7 °F 30.25 in WNW 7.0 mph 12.0 mph 75% 0.00 in
10:59 31.8 °F 24.8 °F 30.25 in WNW 6.0 mph 12.0 mph 75% 0.00 in
11:09 31.9 °F 24.2 °F 30.26 in WNW 6.0 mph 10.0 mph 73% 0.00 in
11:14 31.9 °F 24.2 °F 30.26 in WNW 7.0 mph 14.0 mph 73% 0.00 in
11:19 32.0 °F 24.3 °F 30.26 in West 6.0 mph 14.0 mph 73% 0.00 in
11:24 32.2 °F 24.2 °F 30.25 in WNW 5.0 mph 11.0 mph 72% 0.00 in
11:29 32.2 °F 23.8 °F 30.26 in WNW 5.0 mph 11.0 mph 71% 0.00 in
11:34 32.2 °F 23.5 °F 30.25 in WNW 8.0 mph 14.0 mph 70% 0.00 in
11:39 32.2 °F 23.2 °F 30.26 in WSW 12.0 mph 14.0 mph 69% 0.00 in
11:44 31.9 °F 22.2 °F 30.26 in WNW 8.0 mph 15.0 mph 67% 0.00 in
11:49 31.9 °F 22.2 °F 30.26 in WNW 8.0 mph 15.0 mph 67% 0.00 in
11:54 31.7 °F 22.0 °F 30.26 in WNW 8.0 mph 14.0 mph 67% 0.00 in
11:59 31.7 °F 22.0 °F 30.26 in WNW 8.0 mph 13.0 mph 67% 0.00 in
12:04 31.8 °F 22.4 °F 30.26 in WNW 7.0 mph 10.0 mph 68% 0.00 in
12:09 31.6 °F 22.2 °F 30.26 in WNW 7.0 mph 12.0 mph 68% 0.00 in
12:14 31.9 °F 22.5 °F 30.26 in West 7.0 mph 14.0 mph 68% 0.00 in
12:19 32.1 °F 22.4 °F 30.26 in West 7.0 mph 15.0 mph 67% 0.00 in
12:24 31.6 °F 22.2 °F 30.26 in West 7.0 mph 15.0 mph 68% 0.00 in
12:35 31.4 °F 22.4 °F 30.26 in West 6.0 mph 12.0 mph 69% 0.00 in
12:54 31.1 °F 21.8 °F 30.26 in SW 10.0 mph 11.0 mph 68% 0.00 in
13:05 31.1 °F 21.8 °F 30.27 in West 5.0 mph 12.0 mph 68% 0.00 in
13:25 30.8 °F 21.8 °F 30.27 in West 5.0 mph 14.0 mph 69% 0.00 in
13:29 30.9 °F 21.9 °F 30.27 in WSW 3.0 mph 11.0 mph 69% 0.00 in
13:35 30.9 °F 21.9 °F 30.28 in WSW 6.0 mph 11.0 mph 69% 0.00 in
13:39 30.9 °F 21.9 °F 30.28 in WSW 6.0 mph 10.0 mph 69% 0.00 in
13:44 30.8 °F 21.8 °F 30.28 in WSW 5.0 mph 12.0 mph 69% 0.00 in
13:49 30.8 °F 22.2 °F 30.28 in West 7.0 mph 11.0 mph 70% 0.00 in
13:54 30.6 °F 22.0 °F 30.28 in WSW 6.0 mph 11.0 mph 70% 0.00 in
13:59 30.7 °F 22.4 °F 30.28 in WSW 6.0 mph 11.0 mph 71% 0.00 in
14:04 30.7 °F 22.4 °F 30.29 in WSW 6.0 mph 10.0 mph 71% 0.00 in
14:09 30.7 °F 22.4 °F 30.29 in SW 6.0 mph 8.0 mph 71% 0.00 in
14:10 30.7 °F 22.4 °F 30.29 in WSW 5.0 mph 9.0 mph 71% 0.00 in
14:19 30.4 °F 22.4 °F 30.30 in WSW 7.0 mph 13.0 mph 72% 0.00 in
Buffalo, New York, USA
Compliments of Weather Underground - 1.75 mb